NSZ3630 EKCH-LFSB
Flight info
| Callsign | NSZ3630 |
|---|---|
| Flight time | 1h 41m |
| Altitude | 38000 |
| Route | NEXEN T503 GIMRU DCT MICOS DCT AGATI DCT OTMON DCT SWALM DCT OMOGI/N0459F370 T721 SUNEG DCT STR |
| Aircraft | B38M/M-SDE1FGHILORVWXY/HB1 |
Departure
| Time | 2026-05-06 10:35 |
|---|---|
| Airport | Copenhagen Kastrup Airport (EKCH) |
Arrival
| Time | 2026-05-06 12:16 |
|---|---|
| Airport | EuroAirport Basel–Mulhouse–Freiburg (LFSB) |
| Time | Latitude | Longitude | Altitude | Speed | Heading |
|---|---|---|---|---|---|
| 2026-05-06 10:07 | 55.62879 | 12.64066 | 26 ft | 0 kts | 11° |
| 2026-05-06 10:24 | 55.62863 | 12.64059 | 30 ft | 2 kts | 16° |
| 2026-05-06 10:25 | 55.62847 | 12.64050 | 30 ft | 2 kts | 25° |
| 2026-05-06 10:25 | 55.62833 | 12.64035 | 29 ft | 2 kts | 43° |
| 2026-05-06 10:25 | 55.62824 | 12.64011 | 31 ft | 2 kts | 78° |
| 2026-05-06 10:25 | 55.62825 | 12.63982 | 29 ft | 2 kts | 103° |
| 2026-05-06 10:26 | 55.62828 | 12.63954 | 27 ft | 2 kts | 104° |
| 2026-05-06 10:26 | 55.62832 | 12.63925 | 29 ft | 2 kts | 104° |
| 2026-05-06 10:26 | 55.62836 | 12.63897 | 30 ft | 2 kts | 104° |
| 2026-05-06 10:26 | 55.62840 | 12.63872 | 31 ft | 1 kts | 104° |
| 2026-05-06 10:27 | 55.62841 | 12.63866 | 30 ft | 0 kts | 104° |
| 2026-05-06 10:28 | 55.62838 | 12.63888 | 30 ft | 7 kts | 107° |
| 2026-05-06 10:28 | 55.62784 | 12.63958 | 28 ft | 12 kts | 192° |
| 2026-05-06 10:29 | 55.62695 | 12.63861 | 27 ft | 18 kts | 213° |
| 2026-05-06 10:29 | 55.62573 | 12.63768 | 26 ft | 20 kts | 183° |
| 2026-05-06 10:29 | 55.62442 | 12.63859 | 26 ft | 22 kts | 134° |
| 2026-05-06 10:29 | 55.62351 | 12.64093 | 24 ft | 24 kts | 123° |
| 2026-05-06 10:30 | 55.62263 | 12.64333 | 25 ft | 15 kts | 123° |
| 2026-05-06 10:30 | 55.62170 | 12.64419 | 29 ft | 16 kts | 170° |
| 2026-05-06 10:30 | 55.62060 | 12.64454 | 29 ft | 17 kts | 169° |
| 2026-05-06 10:30 | 55.61941 | 12.64494 | 26 ft | 18 kts | 169° |
| 2026-05-06 10:31 | 55.61811 | 12.64539 | 29 ft | 20 kts | 169° |
| 2026-05-06 10:31 | 55.61672 | 12.64554 | 26 ft | 21 kts | 202° |
| 2026-05-06 10:31 | 55.61546 | 12.64413 | 28 ft | 22 kts | 213° |
| 2026-05-06 10:31 | 55.61411 | 12.64261 | 29 ft | 24 kts | 213° |
| 2026-05-06 10:32 | 55.61270 | 12.64097 | 28 ft | 25 kts | 212° |
| 2026-05-06 10:32 | 55.61121 | 12.63925 | 29 ft | 26 kts | 213° |
| 2026-05-06 10:32 | 55.60965 | 12.63747 | 27 ft | 27 kts | 213° |
| 2026-05-06 10:32 | 55.60803 | 12.63562 | 31 ft | 28 kts | 212° |
| 2026-05-06 10:33 | 55.60654 | 12.63385 | 29 ft | 21 kts | 217° |
| 2026-05-06 10:33 | 55.60554 | 12.63235 | 26 ft | 12 kts | 211° |
| 2026-05-06 10:33 | 55.60477 | 12.63251 | 28 ft | 13 kts | 131° |
| 2026-05-06 10:33 | 55.60418 | 12.63378 | 27 ft | 14 kts | 118° |
| 2026-05-06 10:34 | 55.60450 | 12.63519 | 26 ft | 15 kts | 40° |
| 2026-05-06 10:34 | 55.60593 | 12.63738 | 26 ft | 59 kts | 41° |
| 2026-05-06 10:34 | 55.61105 | 12.64533 | 28 ft | 134 kts | 41° |
| 2026-05-06 10:34 | 55.61940 | 12.65826 | 260 ft | 180 kts | 41° |
| 2026-05-06 10:35 | 55.63018 | 12.67487 | 676 ft | 231 kts | 40° |
| 2026-05-06 10:35 | 55.64297 | 12.69425 | 1708 ft | 241 kts | 40° |
| 2026-05-06 10:35 | 55.65578 | 12.71397 | 2846 ft | 249 kts | 40° |
| 2026-05-06 10:35 | 55.66897 | 12.73388 | 4006 ft | 250 kts | 40° |
| 2026-05-06 10:36 | 55.67992 | 12.75808 | 5007 ft | 258 kts | 65° |
| 2026-05-06 10:36 | 55.68342 | 12.78955 | 5933 ft | 269 kts | 92° |
| 2026-05-06 10:36 | 55.67833 | 12.82191 | 6771 ft | 278 kts | 121° |
| 2026-05-06 10:36 | 55.66543 | 12.84734 | 7635 ft | 282 kts | 148° |
| 2026-05-06 10:37 | 55.64743 | 12.86020 | 8590 ft | 280 kts | 174° |
| 2026-05-06 10:37 | 55.62794 | 12.86120 | 9504 ft | 282 kts | 185° |
| 2026-05-06 10:37 | 55.60818 | 12.85999 | 10341 ft | 289 kts | 185° |
| 2026-05-06 10:37 | 55.58779 | 12.85541 | 10776 ft | 305 kts | 200° |
| 2026-05-06 10:38 | 55.56863 | 12.83795 | 11181 ft | 318 kts | 221° |
| 2026-05-06 10:38 | 55.55157 | 12.81164 | 11655 ft | 332 kts | 223° |
| 2026-05-06 10:38 | 55.53377 | 12.78449 | 12249 ft | 343 kts | 222° |
| 2026-05-06 10:38 | 55.51553 | 12.75691 | 13060 ft | 346 kts | 222° |
| 2026-05-06 10:39 | 55.49717 | 12.72922 | 13841 ft | 349 kts | 222° |
| 2026-05-06 10:39 | 55.47863 | 12.70133 | 14517 ft | 353 kts | 222° |
| 2026-05-06 10:39 | 55.45987 | 12.67313 | 15208 ft | 355 kts | 222° |
| 2026-05-06 10:39 | 55.44117 | 12.64507 | 15870 ft | 359 kts | 222° |
| 2026-05-06 10:40 | 55.42211 | 12.61650 | 16517 ft | 362 kts | 222° |
| 2026-05-06 10:40 | 55.40282 | 12.58764 | 17164 ft | 365 kts | 222° |
| 2026-05-06 10:40 | 55.38329 | 12.55845 | 17808 ft | 368 kts | 222° |
| 2026-05-06 10:40 | 55.36370 | 12.52922 | 18411 ft | 372 kts | 222° |
| 2026-05-06 10:41 | 55.34389 | 12.49970 | 18960 ft | 374 kts | 222° |
| 2026-05-06 10:41 | 55.32400 | 12.47010 | 19510 ft | 377 kts | 222° |
| 2026-05-06 10:41 | 55.30392 | 12.44025 | 20066 ft | 379 kts | 222° |
| 2026-05-06 10:41 | 55.28376 | 12.41033 | 20611 ft | 381 kts | 222° |
| 2026-05-06 10:42 | 55.26340 | 12.38013 | 21158 ft | 384 kts | 222° |
| 2026-05-06 10:42 | 55.24295 | 12.34985 | 21691 ft | 386 kts | 222° |
| 2026-05-06 10:42 | 55.22237 | 12.31943 | 22227 ft | 388 kts | 221° |
| 2026-05-06 10:42 | 55.20168 | 12.28889 | 22736 ft | 391 kts | 221° |
| 2026-05-06 10:43 | 55.18080 | 12.25810 | 23250 ft | 393 kts | 221° |
| 2026-05-06 10:43 | 55.15976 | 12.22712 | 23695 ft | 396 kts | 221° |
| 2026-05-06 10:43 | 55.13856 | 12.19596 | 24106 ft | 398 kts | 221° |
| 2026-05-06 10:44 | 55.09613 | 12.13370 | 24894 ft | 403 kts | 221° |
| 2026-05-06 10:44 | 55.07455 | 12.10211 | 25264 ft | 406 kts | 221° |
| 2026-05-06 10:44 | 55.05281 | 12.07032 | 25649 ft | 409 kts | 221° |
| 2026-05-06 10:44 | 55.03092 | 12.03837 | 26024 ft | 411 kts | 221° |
| 2026-05-06 10:45 | 55.00895 | 12.00635 | 26387 ft | 414 kts | 221° |
| 2026-05-06 10:45 | 54.98671 | 11.97398 | 26754 ft | 416 kts | 221° |
| 2026-05-06 10:45 | 54.96440 | 11.94157 | 27112 ft | 419 kts | 221° |
| 2026-05-06 10:45 | 54.94198 | 11.90902 | 27466 ft | 421 kts | 221° |
| 2026-05-06 10:46 | 54.91934 | 11.87622 | 27812 ft | 424 kts | 221° |
| 2026-05-06 10:46 | 54.89663 | 11.84336 | 28145 ft | 426 kts | 221° |
| 2026-05-06 10:46 | 54.87402 | 11.81071 | 28480 ft | 428 kts | 221° |
| 2026-05-06 10:46 | 54.85077 | 11.77717 | 28816 ft | 431 kts | 221° |
| 2026-05-06 10:47 | 54.82792 | 11.74426 | 29122 ft | 433 kts | 221° |
| 2026-05-06 10:47 | 54.80437 | 11.71039 | 29461 ft | 435 kts | 221° |
| 2026-05-06 10:47 | 54.78132 | 11.67731 | 29893 ft | 435 kts | 221° |
| 2026-05-06 10:47 | 54.75807 | 11.64395 | 30282 ft | 434 kts | 220° |
| 2026-05-06 10:48 | 54.73488 | 11.61074 | 30673 ft | 433 kts | 220° |
| 2026-05-06 10:48 | 54.71170 | 11.57761 | 31062 ft | 431 kts | 220° |
| 2026-05-06 10:48 | 54.68860 | 11.54464 | 31460 ft | 430 kts | 220° |
| 2026-05-06 10:48 | 54.66554 | 11.51177 | 31844 ft | 429 kts | 220° |
| 2026-05-06 10:49 | 54.64251 | 11.47900 | 32223 ft | 428 kts | 220° |
| 2026-05-06 10:49 | 54.61957 | 11.44642 | 32613 ft | 426 kts | 220° |
| 2026-05-06 10:49 | 54.59669 | 11.41395 | 33002 ft | 425 kts | 220° |
| 2026-05-06 10:49 | 54.57394 | 11.38173 | 33370 ft | 423 kts | 220° |
| 2026-05-06 10:50 | 54.55114 | 11.34948 | 33712 ft | 423 kts | 220° |
| 2026-05-06 10:50 | 54.52865 | 11.31772 | 34013 ft | 422 kts | 220° |
| 2026-05-06 10:50 | 54.50598 | 11.28577 | 34277 ft | 422 kts | 220° |
| 2026-05-06 10:50 | 54.48320 | 11.25370 | 34526 ft | 422 kts | 220° |
| 2026-05-06 10:51 | 54.46050 | 11.22180 | 34776 ft | 422 kts | 220° |
| 2026-05-06 10:51 | 54.43767 | 11.18975 | 35006 ft | 422 kts | 220° |
| 2026-05-06 10:51 | 54.41497 | 11.15794 | 35252 ft | 422 kts | 220° |
| 2026-05-06 10:51 | 54.39218 | 11.12606 | 35499 ft | 422 kts | 220° |
| 2026-05-06 10:52 | 54.36939 | 11.09421 | 35729 ft | 422 kts | 220° |
| 2026-05-06 10:52 | 54.34657 | 11.06237 | 35959 ft | 422 kts | 220° |
| 2026-05-06 10:52 | 54.32381 | 11.03066 | 36190 ft | 422 kts | 220° |
| 2026-05-06 10:52 | 54.29948 | 11.00247 | 36401 ft | 424 kts | 206° |
| 2026-05-06 10:53 | 54.27238 | 10.98274 | 36635 ft | 424 kts | 206° |
| 2026-05-06 10:53 | 54.24526 | 10.96227 | 36752 ft | 426 kts | 206° |
| 2026-05-06 10:53 | 54.21802 | 10.94212 | 36942 ft | 426 kts | 206° |
| 2026-05-06 10:53 | 54.19080 | 10.92228 | 37135 ft | 427 kts | 205° |
| 2026-05-06 10:54 | 54.16342 | 10.90247 | 37325 ft | 427 kts | 205° |
| 2026-05-06 10:54 | 54.13611 | 10.88279 | 37511 ft | 427 kts | 205° |
| 2026-05-06 10:54 | 54.10876 | 10.86311 | 37700 ft | 426 kts | 205° |
| 2026-05-06 10:54 | 54.08133 | 10.84341 | 37858 ft | 427 kts | 205° |
| 2026-05-06 10:55 | 54.05394 | 10.82377 | 37881 ft | 427 kts | 205° |
| 2026-05-06 10:55 | 54.00850 | 10.79125 | 37868 ft | 425 kts | 205° |
| 2026-05-06 10:56 | 53.94497 | 10.74591 | 37859 ft | 425 kts | 205° |
| 2026-05-06 10:56 | 53.89047 | 10.70713 | 37851 ft | 425 kts | 205° |
| 2026-05-06 10:57 | 53.84464 | 10.67461 | 37856 ft | 425 kts | 205° |
| 2026-05-06 10:57 | 53.78995 | 10.63590 | 37855 ft | 425 kts | 205° |
| 2026-05-06 10:58 | 53.73573 | 10.59763 | 37857 ft | 425 kts | 205° |
| 2026-05-06 10:58 | 53.68112 | 10.55919 | 37857 ft | 425 kts | 205° |
| 2026-05-06 10:59 | 53.62655 | 10.52089 | 37850 ft | 425 kts | 205° |
| 2026-05-06 10:59 | 53.57199 | 10.48270 | 37852 ft | 425 kts | 205° |
| 2026-05-06 11:00 | 53.51732 | 10.44455 | 37853 ft | 425 kts | 205° |
| 2026-05-06 11:00 | 53.46279 | 10.40660 | 37841 ft | 424 kts | 205° |
| 2026-05-06 11:01 | 53.40825 | 10.36875 | 37846 ft | 424 kts | 205° |
| 2026-05-06 11:01 | 53.35371 | 10.33100 | 37842 ft | 424 kts | 205° |
| 2026-05-06 11:02 | 53.29946 | 10.29356 | 37842 ft | 424 kts | 205° |
| 2026-05-06 11:02 | 53.24494 | 10.25604 | 37835 ft | 423 kts | 205° |
| 2026-05-06 11:03 | 53.19043 | 10.21863 | 37839 ft | 423 kts | 205° |
| 2026-05-06 11:03 | 53.13605 | 10.18140 | 37833 ft | 422 kts | 205° |
| 2026-05-06 11:04 | 53.08165 | 10.14426 | 37832 ft | 422 kts | 205° |
| 2026-05-06 11:04 | 53.02732 | 10.10728 | 37813 ft | 421 kts | 205° |
| 2026-05-06 11:05 | 52.97310 | 10.07044 | 37830 ft | 421 kts | 205° |
| 2026-05-06 11:05 | 52.91899 | 10.03388 | 37827 ft | 422 kts | 203° |
| 2026-05-06 11:06 | 52.86224 | 10.00736 | 37834 ft | 425 kts | 198° |
| 2026-05-06 11:06 | 52.80505 | 9.98222 | 37830 ft | 425 kts | 198° |
| 2026-05-06 11:07 | 52.74790 | 9.95727 | 37819 ft | 425 kts | 198° |
| 2026-05-06 11:07 | 52.69061 | 9.93235 | 37825 ft | 426 kts | 198° |
| 2026-05-06 11:08 | 52.63327 | 9.90748 | 37824 ft | 427 kts | 198° |
| 2026-05-06 11:08 | 52.57576 | 9.88259 | 37825 ft | 428 kts | 198° |
| 2026-05-06 11:09 | 52.51810 | 9.85770 | 37835 ft | 428 kts | 198° |
| 2026-05-06 11:09 | 52.46048 | 9.83292 | 37826 ft | 428 kts | 198° |
| 2026-05-06 11:10 | 52.40285 | 9.80819 | 37826 ft | 428 kts | 198° |
| 2026-05-06 11:10 | 52.34517 | 9.78350 | 37833 ft | 427 kts | 198° |
| 2026-05-06 11:11 | 52.28765 | 9.75895 | 37820 ft | 427 kts | 198° |
| 2026-05-06 11:11 | 52.23005 | 9.73442 | 37829 ft | 427 kts | 198° |
| 2026-05-06 11:12 | 52.17258 | 9.71003 | 37820 ft | 427 kts | 198° |
| 2026-05-06 11:12 | 52.11507 | 9.68568 | 37821 ft | 426 kts | 198° |
| 2026-05-06 11:13 | 52.05808 | 9.66161 | 37802 ft | 426 kts | 198° |
| 2026-05-06 11:13 | 52.00064 | 9.63742 | 37809 ft | 426 kts | 197° |
| 2026-05-06 11:14 | 51.94328 | 9.61332 | 37795 ft | 425 kts | 197° |
| 2026-05-06 11:14 | 51.88606 | 9.58935 | 37794 ft | 425 kts | 197° |
| 2026-05-06 11:15 | 51.82885 | 9.56544 | 37790 ft | 424 kts | 197° |
| 2026-05-06 11:15 | 51.77165 | 9.54160 | 37790 ft | 424 kts | 197° |
| 2026-05-06 11:16 | 51.71455 | 9.51787 | 37780 ft | 423 kts | 197° |
| 2026-05-06 11:16 | 51.65753 | 9.49422 | 37778 ft | 423 kts | 197° |
| 2026-05-06 11:17 | 51.60045 | 9.47062 | 37772 ft | 423 kts | 197° |
| 2026-05-06 11:17 | 51.54345 | 9.44711 | 37768 ft | 422 kts | 197° |
| 2026-05-06 11:18 | 51.48656 | 9.42371 | 37776 ft | 422 kts | 197° |
| 2026-05-06 11:18 | 51.43005 | 9.40052 | 37766 ft | 422 kts | 197° |
| 2026-05-06 11:19 | 51.37324 | 9.37726 | 37781 ft | 422 kts | 197° |
| 2026-05-06 11:19 | 51.31635 | 9.35402 | 37774 ft | 421 kts | 197° |
| 2026-05-06 11:20 | 51.25842 | 9.33770 | 37773 ft | 423 kts | 191° |
| 2026-05-06 11:20 | 51.20019 | 9.32383 | 37769 ft | 423 kts | 192° |
| 2026-05-06 11:21 | 51.14194 | 9.30948 | 37774 ft | 423 kts | 192° |
| 2026-05-06 11:21 | 51.08384 | 9.29515 | 37773 ft | 423 kts | 191° |
| 2026-05-06 11:22 | 51.02575 | 9.28085 | 37775 ft | 422 kts | 191° |
| 2026-05-06 11:22 | 50.96802 | 9.26666 | 37957 ft | 422 kts | 191° |
| 2026-05-06 11:22 | 50.93880 | 9.25950 | 37817 ft | 427 kts | 190° |
| 2026-05-06 11:23 | 50.90928 | 9.25227 | 37738 ft | 430 kts | 191° |
| 2026-05-06 11:23 | 50.84984 | 9.23776 | 37761 ft | 433 kts | 191° |
| 2026-05-06 11:24 | 50.79044 | 9.22328 | 37754 ft | 432 kts | 190° |
| 2026-05-06 11:24 | 50.73091 | 9.20880 | 37752 ft | 432 kts | 190° |
| 2026-05-06 11:25 | 50.67124 | 9.19638 | 37753 ft | 433 kts | 189° |
| 2026-05-06 11:25 | 50.61150 | 9.18398 | 37752 ft | 433 kts | 189° |
| 2026-05-06 11:26 | 50.55180 | 9.17157 | 37754 ft | 433 kts | 189° |
| 2026-05-06 11:26 | 50.49232 | 9.15925 | 37756 ft | 433 kts | 189° |
| 2026-05-06 11:27 | 50.43245 | 9.14688 | 37758 ft | 434 kts | 189° |
| 2026-05-06 11:27 | 50.37257 | 9.13453 | 37757 ft | 434 kts | 189° |
| 2026-05-06 11:28 | 50.31275 | 9.12223 | 37764 ft | 434 kts | 189° |
| 2026-05-06 11:28 | 50.25278 | 9.10993 | 37761 ft | 434 kts | 189° |
| 2026-05-06 11:29 | 50.19292 | 9.09768 | 37760 ft | 434 kts | 189° |
| 2026-05-06 11:29 | 50.13310 | 9.08548 | 37763 ft | 433 kts | 189° |
| 2026-05-06 11:30 | 50.07347 | 9.07334 | 37769 ft | 432 kts | 189° |
| 2026-05-06 11:30 | 50.01429 | 9.06132 | 37763 ft | 431 kts | 189° |
| 2026-05-06 11:31 | 49.95493 | 9.04930 | 37770 ft | 430 kts | 189° |
| 2026-05-06 11:31 | 49.89562 | 9.03731 | 37774 ft | 429 kts | 189° |
| 2026-05-06 11:32 | 49.83644 | 9.02538 | 37768 ft | 429 kts | 189° |
| 2026-05-06 11:32 | 49.77726 | 9.01348 | 37775 ft | 429 kts | 189° |
| 2026-05-06 11:33 | 49.71812 | 9.00162 | 37775 ft | 428 kts | 189° |
| 2026-05-06 11:33 | 49.65907 | 8.98948 | 37774 ft | 427 kts | 192° |
| 2026-05-06 11:34 | 49.60046 | 8.97297 | 37785 ft | 428 kts | 192° |
| 2026-05-06 11:34 | 49.54216 | 8.95702 | 37787 ft | 428 kts | 191° |
| 2026-05-06 11:35 | 49.48341 | 8.94107 | 37789 ft | 429 kts | 191° |
| 2026-05-06 11:35 | 49.42465 | 8.92516 | 37788 ft | 429 kts | 192° |
| 2026-05-06 11:36 | 49.36565 | 8.90921 | 37791 ft | 430 kts | 192° |
| 2026-05-06 11:36 | 49.30657 | 8.89329 | 37790 ft | 431 kts | 192° |
| 2026-05-06 11:37 | 49.24728 | 8.87735 | 37795 ft | 432 kts | 192° |
| 2026-05-06 11:37 | 49.21857 | 8.86501 | 37772 ft | 428 kts | 206° |
| 2026-05-06 11:37 | 49.19343 | 8.84133 | 37802 ft | 426 kts | 221° |
| 2026-05-06 11:38 | 49.15308 | 8.77459 | 37792 ft | 429 kts | 229° |
| 2026-05-06 11:38 | 49.11498 | 8.70437 | 37792 ft | 429 kts | 230° |
| 2026-05-06 11:39 | 49.07743 | 8.63364 | 37797 ft | 429 kts | 231° |
| 2026-05-06 11:39 | 49.04012 | 8.56314 | 37797 ft | 429 kts | 231° |
| 2026-05-06 11:40 | 49.00253 | 8.49224 | 37804 ft | 430 kts | 230° |
| 2026-05-06 11:40 | 48.96500 | 8.42166 | 37797 ft | 429 kts | 230° |
| 2026-05-06 11:41 | 48.92730 | 8.35093 | 37798 ft | 429 kts | 230° |
| 2026-05-06 11:41 | 48.88970 | 8.28057 | 37803 ft | 429 kts | 230° |
| 2026-05-06 11:42 | 48.85197 | 8.21016 | 37805 ft | 429 kts | 230° |
| 2026-05-06 11:42 | 48.82062 | 8.15182 | 37802 ft | 429 kts | 230° |
| 2026-05-06 11:42 | 48.80180 | 8.11685 | 37310 ft | 426 kts | 230° |
| 2026-05-06 11:43 | 48.78291 | 8.08181 | 36477 ft | 429 kts | 230° |
| 2026-05-06 11:43 | 48.76403 | 8.04679 | 35772 ft | 429 kts | 230° |
| 2026-05-06 11:43 | 48.74509 | 8.01175 | 35105 ft | 428 kts | 229° |
| 2026-05-06 11:44 | 48.70742 | 7.94215 | 33866 ft | 424 kts | 229° |
| 2026-05-06 11:44 | 48.68866 | 7.90756 | 32955 ft | 427 kts | 229° |
| 2026-05-06 11:44 | 48.66971 | 7.87266 | 32055 ft | 430 kts | 229° |
| 2026-05-06 11:44 | 48.65070 | 7.83770 | 31317 ft | 429 kts | 229° |
| 2026-05-06 11:45 | 48.63171 | 7.80283 | 30602 ft | 429 kts | 228° |
| 2026-05-06 11:45 | 48.61268 | 7.76793 | 29784 ft | 432 kts | 228° |
| 2026-05-06 11:45 | 48.59358 | 7.73293 | 29055 ft | 429 kts | 228° |
| 2026-05-06 11:45 | 48.57447 | 7.69795 | 28450 ft | 434 kts | 229° |
| 2026-05-06 11:46 | 48.55545 | 7.66317 | 27864 ft | 436 kts | 229° |
| 2026-05-06 11:46 | 48.53612 | 7.62788 | 27287 ft | 434 kts | 229° |
| 2026-05-06 11:46 | 48.51623 | 7.59397 | 26604 ft | 429 kts | 220° |
| 2026-05-06 11:46 | 48.49161 | 7.56932 | 25981 ft | 423 kts | 204° |
| 2026-05-06 11:47 | 48.46455 | 7.55280 | 25515 ft | 416 kts | 200° |
| 2026-05-06 11:47 | 48.43758 | 7.53744 | 24962 ft | 413 kts | 199° |
| 2026-05-06 11:47 | 48.41070 | 7.52274 | 24408 ft | 410 kts | 199° |
| 2026-05-06 11:47 | 48.38396 | 7.50841 | 23862 ft | 407 kts | 199° |
| 2026-05-06 11:48 | 48.35730 | 7.49432 | 23305 ft | 405 kts | 199° |
| 2026-05-06 11:48 | 48.33076 | 7.48040 | 22673 ft | 402 kts | 199° |
| 2026-05-06 11:48 | 48.30446 | 7.46665 | 22113 ft | 398 kts | 199° |
| 2026-05-06 11:48 | 48.27833 | 7.45302 | 21598 ft | 396 kts | 198° |
| 2026-05-06 11:49 | 48.25233 | 7.43946 | 21044 ft | 396 kts | 198° |
| 2026-05-06 11:49 | 48.22625 | 7.42589 | 20505 ft | 396 kts | 198° |
| 2026-05-06 11:49 | 48.20023 | 7.41235 | 19975 ft | 394 kts | 198° |
| 2026-05-06 11:49 | 48.17436 | 7.39892 | 19460 ft | 392 kts | 198° |
| 2026-05-06 11:50 | 48.14899 | 7.38575 | 18951 ft | 390 kts | 198° |
| 2026-05-06 11:50 | 48.12314 | 7.37235 | 18441 ft | 387 kts | 198° |
| 2026-05-06 11:50 | 48.09805 | 7.35936 | 17924 ft | 385 kts | 199° |
| 2026-05-06 11:50 | 48.07283 | 7.34631 | 17374 ft | 382 kts | 199° |
| 2026-05-06 11:51 | 48.04777 | 7.33336 | 16863 ft | 379 kts | 199° |
| 2026-05-06 11:51 | 48.02295 | 7.32055 | 16385 ft | 375 kts | 199° |
| 2026-05-06 11:51 | 47.99831 | 7.30784 | 15919 ft | 373 kts | 199° |
| 2026-05-06 11:51 | 47.99610 | 7.30670 | 15880 ft | 373 kts | 199° |
| 2026-05-06 11:58 | 47.97280 | 7.29469 | 15444 ft | 370 kts | 199° |
| 2026-05-06 11:58 | 47.94855 | 7.28223 | 14986 ft | 367 kts | 199° |
| 2026-05-06 11:58 | 47.92449 | 7.26997 | 14492 ft | 365 kts | 199° |
| 2026-05-06 11:59 | 47.90055 | 7.25778 | 14068 ft | 362 kts | 199° |
| 2026-05-06 11:59 | 47.87682 | 7.24570 | 13652 ft | 359 kts | 199° |
| 2026-05-06 11:59 | 47.85327 | 7.23371 | 13166 ft | 356 kts | 199° |
| 2026-05-06 11:59 | 47.82995 | 7.22186 | 12723 ft | 353 kts | 199° |
| 2026-05-06 12:00 | 47.80683 | 7.21013 | 12309 ft | 348 kts | 199° |
| 2026-05-06 12:00 | 47.78403 | 7.19857 | 11881 ft | 345 kts | 199° |
| 2026-05-06 12:00 | 47.76138 | 7.18709 | 11464 ft | 341 kts | 199° |
| 2026-05-06 12:00 | 47.73909 | 7.17582 | 11218 ft | 333 kts | 199° |
| 2026-05-06 12:01 | 47.71754 | 7.16491 | 11083 ft | 322 kts | 199° |
| 2026-05-06 12:01 | 47.69630 | 7.15634 | 10941 ft | 313 kts | 186° |
| 2026-05-06 12:01 | 47.67499 | 7.15936 | 10803 ft | 305 kts | 166° |
| 2026-05-06 12:01 | 47.65573 | 7.16877 | 10816 ft | 279 kts | 163° |
| 2026-05-06 12:02 | 47.63792 | 7.17801 | 10603 ft | 264 kts | 163° |
| 2026-05-06 12:02 | 47.62126 | 7.18670 | 10372 ft | 250 kts | 163° |
| 2026-05-06 12:02 | 47.60533 | 7.19511 | 10221 ft | 234 kts | 163° |
| 2026-05-06 12:02 | 47.59049 | 7.20305 | 10102 ft | 218 kts | 163° |
| 2026-05-06 12:03 | 47.57673 | 7.21039 | 9981 ft | 203 kts | 163° |
| 2026-05-06 12:03 | 47.56393 | 7.21725 | 9886 ft | 191 kts | 163° |
| 2026-05-06 12:03 | 47.55117 | 7.22420 | 9804 ft | 199 kts | 163° |
| 2026-05-06 12:03 | 47.53935 | 7.23059 | 9676 ft | 204 kts | 163° |
| 2026-05-06 12:04 | 47.52601 | 7.23811 | 9486 ft | 206 kts | 157° |
| 2026-05-06 12:04 | 47.51395 | 7.24971 | 9280 ft | 207 kts | 144° |
| 2026-05-06 12:04 | 47.50285 | 7.26340 | 9124 ft | 207 kts | 143° |
| 2026-05-06 12:04 | 47.49205 | 7.27709 | 8925 ft | 207 kts | 143° |
| 2026-05-06 12:05 | 47.48111 | 7.29096 | 8736 ft | 207 kts | 143° |
| 2026-05-06 12:05 | 47.47045 | 7.30456 | 8553 ft | 199 kts | 143° |
| 2026-05-06 12:05 | 47.46015 | 7.31778 | 8325 ft | 194 kts | 143° |
| 2026-05-06 12:05 | 47.44993 | 7.33079 | 8166 ft | 193 kts | 143° |
| 2026-05-06 12:06 | 47.43982 | 7.34385 | 8023 ft | 193 kts | 143° |
| 2026-05-06 12:06 | 47.42975 | 7.35701 | 7867 ft | 193 kts | 143° |
| 2026-05-06 12:06 | 47.41975 | 7.37020 | 7717 ft | 193 kts | 143° |
| 2026-05-06 12:06 | 47.40975 | 7.38342 | 7590 ft | 193 kts | 143° |
| 2026-05-06 12:07 | 47.39973 | 7.39667 | 7462 ft | 193 kts | 143° |
| 2026-05-06 12:07 | 47.38974 | 7.40990 | 7395 ft | 193 kts | 143° |
| 2026-05-06 12:07 | 47.37971 | 7.42317 | 7309 ft | 193 kts | 143° |
| 2026-05-06 12:07 | 47.36975 | 7.43643 | 7178 ft | 192 kts | 143° |
| 2026-05-06 12:08 | 47.35983 | 7.44959 | 7100 ft | 192 kts | 143° |
| 2026-05-06 12:08 | 47.35110 | 7.46419 | 6999 ft | 197 kts | 119° |
| 2026-05-06 12:08 | 47.34835 | 7.48410 | 6957 ft | 203 kts | 90° |
| 2026-05-06 12:08 | 47.35098 | 7.50503 | 6941 ft | 207 kts | 77° |
| 2026-05-06 12:09 | 47.35433 | 7.52539 | 6953 ft | 207 kts | 78° |
| 2026-05-06 12:09 | 47.35754 | 7.54609 | 6953 ft | 207 kts | 79° |
| 2026-05-06 12:09 | 47.36070 | 7.56688 | 6886 ft | 207 kts | 79° |
| 2026-05-06 12:09 | 47.36373 | 7.58758 | 6850 ft | 206 kts | 79° |
| 2026-05-06 12:10 | 47.36672 | 7.60826 | 6782 ft | 206 kts | 80° |
| 2026-05-06 12:10 | 47.36969 | 7.62883 | 6646 ft | 204 kts | 78° |
| 2026-05-06 12:10 | 47.37632 | 7.64722 | 6366 ft | 204 kts | 44° |
| 2026-05-06 12:10 | 47.38833 | 7.65753 | 5851 ft | 201 kts | 8° |
| 2026-05-06 12:11 | 47.40183 | 7.65745 | 5540 ft | 190 kts | 343° |
| 2026-05-06 12:11 | 47.41420 | 7.65158 | 5318 ft | 185 kts | 331° |
| 2026-05-06 12:11 | 47.42575 | 7.64343 | 5117 ft | 184 kts | 329° |
| 2026-05-06 12:11 | 47.43730 | 7.63516 | 4861 ft | 184 kts | 329° |
| 2026-05-06 12:12 | 47.44870 | 7.62724 | 4592 ft | 183 kts | 330° |
| 2026-05-06 12:12 | 47.46024 | 7.61923 | 4347 ft | 183 kts | 329° |
| 2026-05-06 12:12 | 47.47142 | 7.61153 | 4087 ft | 174 kts | 329° |
| 2026-05-06 12:12 | 47.48244 | 7.60388 | 3806 ft | 174 kts | 329° |
| 2026-05-06 12:13 | 47.49338 | 7.59624 | 3516 ft | 174 kts | 331° |
| 2026-05-06 12:13 | 47.50431 | 7.58870 | 3208 ft | 172 kts | 331° |
| 2026-05-06 12:13 | 47.51509 | 7.58120 | 2970 ft | 171 kts | 330° |
| 2026-05-06 12:13 | 47.52593 | 7.57369 | 2696 ft | 172 kts | 332° |
| 2026-05-06 12:14 | 47.53677 | 7.56617 | 2408 ft | 171 kts | 332° |
| 2026-05-06 12:14 | 47.54745 | 7.55875 | 2129 ft | 169 kts | 332° |
| 2026-05-06 12:14 | 47.55808 | 7.55133 | 1871 ft | 168 kts | 332° |
| 2026-05-06 12:14 | 47.56867 | 7.54402 | 1581 ft | 167 kts | 332° |
| 2026-05-06 12:15 | 47.57910 | 7.53680 | 1280 ft | 163 kts | 332° |
| 2026-05-06 12:15 | 47.58887 | 7.53006 | 1036 ft | 148 kts | 330° |
| 2026-05-06 12:15 | 47.59801 | 7.52362 | 908 ft | 142 kts | 329° |
| 2026-05-06 12:15 | 47.60583 | 7.51812 | 883 ft | 100 kts | 335° |
| 2026-05-06 12:16 | 47.61013 | 7.51514 | 877 ft | 42 kts | 334° |
| 2026-05-06 12:16 | 47.61233 | 7.51359 | 871 ft | 38 kts | 334° |
| 2026-05-06 12:16 | 47.61454 | 7.51208 | 874 ft | 31 kts | 335° |
| 2026-05-06 12:16 | 47.61640 | 7.51078 | 878 ft | 27 kts | 336° |
| 2026-05-06 12:17 | 47.61757 | 7.51012 | 878 ft | 10 kts | 12° |
| 2026-05-06 12:17 | 47.61784 | 7.51072 | 879 ft | 6 kts | 69° |
| 2026-05-06 12:17 | 47.61799 | 7.51121 | 878 ft | 7 kts | 66° |
| 2026-05-06 12:17 | 47.61802 | 7.51218 | 876 ft | 10 kts | 108° |
| 2026-05-06 12:18 | 47.61716 | 7.51318 | 874 ft | 21 kts | 159° |
| 2026-05-06 12:18 | 47.61574 | 7.51419 | 868 ft | 23 kts | 155° |
| 2026-05-06 12:18 | 47.61430 | 7.51517 | 868 ft | 22 kts | 154° |
| 2026-05-06 12:18 | 47.61301 | 7.51608 | 871 ft | 19 kts | 155° |
| 2026-05-06 12:19 | 47.61192 | 7.51683 | 874 ft | 16 kts | 153° |
| 2026-05-06 12:19 | 47.61059 | 7.51776 | 877 ft | 41 kts | 155° |
| 2026-05-06 12:19 | 47.60797 | 7.51959 | 883 ft | 41 kts | 155° |
| 2026-05-06 12:19 | 47.60541 | 7.52136 | 884 ft | 40 kts | 153° |
| 2026-05-06 12:20 | 47.60298 | 7.52305 | 889 ft | 37 kts | 154° |
| 2026-05-06 12:20 | 47.60072 | 7.52463 | 892 ft | 36 kts | 153° |
| 2026-05-06 12:20 | 47.59846 | 7.52618 | 892 ft | 36 kts | 156° |
| 2026-05-06 12:20 | 47.59660 | 7.52749 | 892 ft | 25 kts | 155° |
| 2026-05-06 12:21 | 47.59601 | 7.52808 | 892 ft | 8 kts | 115° |
| 2026-05-06 12:21 | 47.59616 | 7.52908 | 892 ft | 13 kts | 63° |
| 2026-05-06 12:21 | 47.59657 | 7.53031 | 892 ft | 14 kts | 66° |
| 2026-05-06 12:21 | 47.59698 | 7.53128 | 892 ft | 7 kts | 14° |
| 2026-05-06 12:22 | 47.59743 | 7.53104 | 892 ft | 8 kts | 332° |
| 2026-05-06 12:22 | 47.59806 | 7.53075 | 892 ft | 12 kts | 5° |
| 2026-05-06 12:22 | 47.59853 | 7.53104 | 892 ft | 0 kts | 32° |
| 2026-05-06 12:22 | 47.59859 | 7.53109 | 892 ft | 0 kts | 32° |